Date,TemperatureHighF,TemperatureAvgF,TemperatureLowF,DewpointHighF,DewpointAvgF,DewpointLowF,HumidityHigh,HumidityAvg,HumidityLow,PressureMaxIn,PressureMinIn,WindSpeedMaxMPH,WindSpeedAvgMPH,GustSpeedMaxMPH,PrecipitationSumIn
2013-1-1,43.3,39.8,35.2,36.7,35.1,32.6,92,84,75,29.09,28.48,10,4,23,0.02
2013-1-2,52.7,46.9,40.6,52.1,44.9,35.5,99,93,77,29.22,29.09,9,2,25,0.18
2013-1-3,52.7,51.3,50.0,51.7,47.2,43.5,99,86,76,29.57,29.21,10,3,26,0.00
2013-1-4,51.4,49.1,46.8,50.0,45.9,41.9,99,89,78,29.64,29.57,7,1,17,0.00
2013-1-5,50.2,48.1,45.9,49.7,44.9,41.7,99,89,80,29.61,29.46,7,1,16,0.14
2013-1-6,50.4,45.4,39.6,46.8,42.7,38.5,99,91,80,29.62,29.37,4,0,13,0.00
2013-1-7,49.5,47.9,46.9,49.2,47.5,45.4,99,99,93,29.37,29.20,4,0,10,0.14
2013-1-8,51.8,46.9,39.0,51.5,44.6,35.1,99,92,79,29.34,29.16,7,1,19,0.06
2013-1-9,45.3,40.3,35.8,42.2,37.6,33.4,99,90,80,29.34,29.22,4,0,11,0.01
2013-1-10,42.3,38.8,34.5,42.0,38.4,33.2,99,98,94,29.22,29.13,3,0,10,0.04
2013-1-11,41.4,37.0,32.7,41.1,36.7,32.5,99,99,97,29.19,29.14,0,0,2,0.02
2013-1-12,42.3,34.1,29.7,42.0,32.5,27.9,99,94,79,29.30,29.12,0,0,4,0.00
2013-1-13,35.4,33.5,29.1,35.2,32.8,28.6,99,97,92,29.30,29.14,0,0,2,0.01
2013-1-14,38.8,35.4,31.3,36.9,31.7,26.1,99,87,73,29.15,28.90,5,1,14,0.06
2013-1-15,45.5,31.3,23.0,41.5,28.1,21.1,95,88,70,29.09,28.99,2,0,7,0.00
2013-1-16,33.4,28.8,22.5,28.2,24.9,20.8,95,85,75,29.14,29.01,0,0,0,0.00
2013-1-17,36.3,31.8,27.5,26.3,23.1,19.8,77,70,59,29.16,28.98,1,0,2,0.00
2013-1-18,36.9,31.5,29.1,31.4,23.2,18.5,99,72,54,28.98,28.74,0,0,0,0.00
2013-1-19,35.6,31.8,25.2,31.3,28.2,21.3,98,86,76,28.90,28.76,2,0,6,0.01
2013-1-20,33.3,31.9,30.7,29.9,27.0,25.1,93,82,73,28.88,28.71,2,0,8,0.00
2013-1-21,33.6,32.8,32.0,33.4,31.1,26.1,99,93,76,28.71,28.64,4,1,14,0.00
2013-1-22,35.2,33.4,31.5,33.9,31.4,27.2,99,92,77,29.01,28.69,2,0,10,0.00
2013-1-23,37.9,32.7,26.6,35.0,30.2,24.9,98,91,79,29.12,29.00,0,0,0,0.00
2013-1-24,39.6,33.6,31.1,36.0,29.4,25.8,99,85,69,29.23,29.12,2,0,8,0.00
2013-1-25,35.4,34.2,33.3,34.9,30.3,25.7,99,86,70,29.13,28.56,4,1,16,0.01
2013-1-26,45.5,39.6,34.2,41.8,34.1,29.2,99,81,62,28.75,28.17,6,1,17,0.53
2013-1-27,46.9,40.8,36.9,44.1,36.4,31.1,92,85,74,28.40,27.99,7,2,23,0.12
2013-1-28,45.7,41.1,36.9,41.7,35.4,31.4,91,80,69,28.54,28.10,8,3,21,0.17
2013-1-29,51.3,45.8,42.6,50.7,39.5,32.6,98,79,65,28.54,28.17,11,3,34,0.18
2013-1-30,45.9,41.5,38.7,37.5,34.8,32.5,89,77,66,28.84,28.33,9,4,31,0.32
2013-1-31,45.9,40.4,36.3,38.4,35.8,32.0,98,84,72,28.84,28.41,10,3,27,0.49
2013-2-1,43.0,38.5,33.4,37.7,33.5,26.7,90,82,74,28.98,28.54,7,1,17,0.09
2013-2-2,43.7,35.9,32.5,28.6,25.1,21.5,79,66,45,29.34,28.98,7,1,13,0.00
2013-2-3,49.6,44.0,34.2,45.7,38.3,27.9,99,81,65,29.19,28.67,12,4,31,0.11
2013-2-4,48.7,37.7,31.6,45.7,32.6,28.5,99,82,69,28.76,28.51,14,5,45,0.24
2013-2-5,43.7,36.6,30.9,36.2,31.4,26.9,99,82,68,28.74,28.25,10,3,22,0.14
2013-2-6,43.9,37.5,34.2,31.5,25.7,21.9,77,63,51,29.30,28.74,6,2,17,0.00
2013-2-7,40.6,36.2,33.4,32.0,27.3,22.0,89,70,58,29.29,29.16,6,1,13,0.00
2013-2-8,45.7,39.5,34.2,34.6,30.5,26.5,91,72,49,29.33,29.22,7,1,15,0.05
2013-2-9,41.4,37.9,36.0,41.1,36.4,33.1,99,94,88,29.30,28.98,0,0,3,0.07
2013-2-10,37.9,36.4,34.7,33.8,32.1,29.3,90,84,72,28.98,28.59,6,0,14,0.02
2013-2-11,45.0,36.2,32.4,33.8,27.9,23.8,87,73,56,29.12,28.67,4,1,10,0.00
2013-2-12,37.4,34.4,31.3,27.2,25.9,24.3,78,71,63,29.26,29.11,3,0,8,0.00
2013-2-13,41.4,34.7,29.8,41.1,30.6,22.7,99,85,66,29.24,28.72,5,1,14,0.40
2013-2-14,50.2,43.2,39.6,42.7,38.2,35.2,99,84,63,29.00,28.74,6,2,23,0.02
2013-2-15,52.3,43.5,31.5,37.6,34.5,28.0,88,72,51,29.30,29.00,8,1,20,0.00
2013-2-16,48.9,41.7,31.6,43.4,38.1,28.7,99,88,72,29.30,29.27,4,0,8,0.00
2013-2-17,55.9,43.0,31.8,42.1,33.9,28.0,89,73,44,29.29,29.23,2,0,8,0.00
2013-2-18,55.9,37.6,28.6,37.0,26.9,22.1,90,69,34,29.30,29.25,1,0,6,0.01
2013-2-19,54.7,38.6,28.9,36.2,28.5,21.1,91,69,36,29.32,29.27,3,0,8,0.00
2013-2-20,43.3,37.8,27.0,39.9,31.8,20.5,97,79,69,29.48,29.31,3,0,9,0.00
2013-2-21,41.5,33.0,24.8,27.0,21.9,18.5,82,64,51,29.49,29.44,4,0,11,0.00
2013-2-22,36.3,33.6,32.0,25.2,21.3,18.1,73,61,55,29.47,29.43,3,0,8,0.00
2013-2-23,46.2,34.8,29.8,28.7,24.6,20.5,85,68,39,29.54,29.42,2,0,8,0.00
2013-2-24,46.9,35.3,30.2,39.9,32.6,25.1,99,90,64,29.64,29.53,2,0,8,0.30
2013-2-25,47.3,36.4,30.7,41.5,34.5,29.7,99,93,66,29.79,29.64,2,0,6,0.02
2013-2-26,48.0,37.8,28.0,41.8,34.8,27.8,99,90,65,29.85,29.78,3,0,6,0.00
2013-2-27,64.2,38.4,24.6,34.1,28.4,24.4,99,74,27,29.84,29.75,0,0,2,0.01
2013-2-28,58.5,40.7,28.9,42.7,33.6,26.7,99,79,43,29.75,29.67,1,0,5,0.00
2013-3-1,55.4,41.7,31.3,35.6,29.9,24.8,82,65,40,29.72,29.60,1,0,3,0.00
2013-3-2,59.4,44.6,32.0,38.4,34.7,27.5,99,71,45,29.60,29.42,2,0,12,0.00
2013-3-3,50.4,44.0,40.1,39.4,35.4,31.0,86,73,57,29.43,29.27,0,0,2,0.00
2013-3-4,52.5,40.8,32.0,32.7,30.0,25.9,82,67,46,29.27,28.92,0,0,1,0.00
2013-3-5,53.8,37.7,26.6,35.0,27.6,22.1,91,70,41,28.93,28.83,2,0,4,0.00
2013-3-6,41.4,38.1,34.5,38.4,33.8,30.2,99,85,74,28.90,28.84,4,0,9,0.04
2013-3-7,44.6,40.6,38.7,44.3,40.3,38.3,99,99,98,28.85,28.75,4,0,14,0.13
2013-3-8,39.2,38.1,37.0,38.9,37.7,36.8,99,98,95,28.90,28.76,5,1,14,0.05
2013-3-9,37.2,36.0,34.2,37.0,33.7,24.8,99,92,67,29.08,28.90,5,2,13,0.12
2013-3-10,40.8,32.9,25.9,31.3,24.1,18.8,89,71,53,29.27,29.07,5,1,14,0.04
2013-3-11,38.1,28.8,21.4,29.1,20.4,13.0,96,73,45,29.29,29.25,6,0,11,0.05
2013-3-12,43.9,34.3,21.4,26.0,20.6,12.1,71,58,42,29.28,29.06,0,0,4,0.02
2013-3-13,49.3,37.0,27.9,23.9,21.2,16.2,71,55,32,29.16,29.03,2,0,8,0.00
2013-3-14,47.1,36.4,26.6,35.1,27.9,17.9,88,72,52,29.16,28.77,2,0,8,0.01
2013-3-15,49.5,40.0,30.6,39.2,33.6,27.3,99,79,60,28.78,28.56,5,0,14,0.06
2013-3-16,35.2,33.8,29.7,35.0,33.5,29.4,99,99,99,28.58,28.43,0,0,2,0.21
2013-3-17,43.7,36.0,29.5,39.5,34.2,29.2,99,94,73,28.45,28.01,4,0,8,0.07
2013-3-18,38.1,35.0,31.5,37.9,34.6,31.2,99,98,95,28.69,28.45,4,1,18,0.13
2013-3-19,35.1,33.3,32.2,34.8,33.1,31.9,99,99,99,28.85,28.69,5,1,14,0.00
2013-3-20,40.6,34.1,28.6,36.6,30.4,23.8,99,87,66,29.23,28.85,2,0,10,0.18
2013-3-21,43.9,32.9,21.6,34.5,24.6,20.4,99,73,47,29.26,29.18,5,1,16,0.00
2013-3-22,34.7,33.4,31.8,27.3,25.7,23.9,81,73,67,29.21,29.13,6,3,18,0.00
2013-3-23,33.1,32.3,31.5,26.4,23.4,20.4,79,70,63,29.36,29.20,6,1,17,0.00
2013-3-24,37.8,32.9,31.1,23.1,21.3,18.9,70,63,51,29.45,29.34,1,0,8,0.00
2013-3-25,37.0,33.1,31.6,24.5,22.4,19.6,72,65,59,29.46,29.41,3,0,11,0.00
2013-3-26,42.3,33.4,26.6,26.5,21.9,17.4,78,64,42,29.42,29.31,3,0,11,0.00
2013-3-27,44.6,34.2,27.9,31.4,24.1,18.3,89,68,41,29.32,29.24,4,0,12,0.06
2013-3-28,41.5,34.3,28.9,33.6,25.1,19.7,99,72,45,29.27,29.21,1,0,4,0.04
2013-3-29,49.6,35.1,27.1,32.2,23.8,18.0,83,66,38,29.21,29.09,0,0,4,0.00
2013-3-30,48.2,33.9,25.2,32.1,25.2,20.1,85,71,46,29.19,29.11,0,0,2,0.08
2013-3-31,46.9,33.7,22.8,30.8,20.5,16.4,87,62,34,29.19,29.16,0,0,1,0.01
2013-4-1,46.8,34.6,24.4,23.3,20.0,17.0,78,58,35,29.25,29.17,0,0,6,0.00
2013-4-2,48.0,35.6,26.4,32.6,25.2,17.8,86,66,50,29.41,29.25,0,0,2,0.01
2013-4-3,50.7,37.8,24.3,42.7,24.8,20.0,99,64,33,29.47,29.41,0,0,2,0.00
2013-4-4,50.4,40.6,34.3,40.4,29.1,12.7,97,68,25,29.44,29.38,5,1,14,0.07
2013-4-5,49.3,38.1,28.8,33.9,25.6,21.2,87,63,37,29.43,29.37,4,1,15,0.01
2013-4-6,54.9,39.8,25.3,33.8,25.1,19.2,79,59,32,29.43,29.35,5,1,12,0.00
2013-4-7,53.2,39.4,30.9,33.5,28.5,23.3,79,66,43,29.36,29.16,4,0,10,0.00
2013-4-8,48.2,38.6,32.7,29.5,23.9,16.7,76,58,33,29.16,28.92,4,1,14,0.00
2013-4-9,46.2,38.2,31.1,30.5,23.7,18.7,84,58,36,28.92,28.84,4,1,17,0.00
2013-4-10,46.4,38.2,30.6,36.4,32.3,26.9,92,80,60,28.89,28.78,3,0,8,0.02
2013-4-11,49.3,40.3,35.2,34.7,31.1,28.4,85,71,50,28.79,28.61,4,1,9,0.00
2013-4-12,47.5,40.6,35.8,35.5,33.1,29.0,84,75,60,28.83,28.57,2,0,8,0.00
2013-4-13,61.7,47.8,39.7,44.3,35.8,27.8,88,68,32,28.93,28.66,5,1,18,0.01
2013-4-14,57.7,52.6,50.2,49.1,44.6,41.2,89,75,58,28.70,28.59,11,5,27,0.21
2013-4-15,59.5,51.1,46.4,46.3,41.7,38.4,83,71,49,28.96,28.66,10,3,25,0.15
2013-4-16,54.1,48.7,43.7,42.1,37.3,30.3,81,66,46,29.01,28.57,11,5,28,0.20
2013-4-17,55.8,46.3,36.0,49.6,39.7,29.9,96,78,63,29.03,28.34,8,3,27,0.22
2013-4-18,53.8,47.5,43.0,44.6,38.5,33.9,94,72,57,29.08,28.30,10,5,27,0.20
2013-4-19,62.6,48.6,36.1,35.3,30.5,23.5,79,54,26,29.59,29.08,3,1,14,0.00
2013-4-20,58.8,45.4,36.1,37.2,32.8,28.5,80,63,39,29.59,29.33,5,1,14,0.00
2013-4-21,58.5,46.8,39.2,40.1,35.5,31.3,75,66,37,29.32,29.02,5,2,11,0.01
2013-4-22,57.0,46.1,38.1,45.1,36.9,31.8,85,71,46,29.03,28.78,6,1,18,0.01
2013-4-23,56.1,48.5,44.6,39.1,36.4,33.1,80,64,45,29.23,28.90,0,0,7,0.05
2013-4-24,47.3,46.1,45.5,38.7,37.0,35.9,72,70,68,29.21,29.16,0,0,0,0.00
2013-4-25,56.1,44.9,40.1,37.5,33.2,29.3,76,64,42,29.38,29.19,0,0,1,0.05
2013-4-26,57.0,42.0,36.9,35.3,32.2,29.4,84,69,44,29.21,29.01,0,0,1,0.25
2013-4-27,59.5,46.0,37.2,34.0,27.3,19.8,85,51,23,29.30,29.14,0,0,2,0.01
2013-4-28,54.9,43.8,38.3,41.7,34.8,28.2,90,71,49,29.13,28.78,0,0,4,0.18
2013-4-29,55.6,46.3,38.8,34.2,32.1,27.4,79,59,36,29.26,28.79,0,0,8,0.01
2013-4-30,64.4,47.3,34.0,32.7,27.7,17.2,82,51,16,29.47,29.26,0,0,1,0.00
2013-5-1,47.3,43.1,40.1,39.1,32.2,27.7,76,66,55,29.38,29.28,0,0,1,0.01
2013-5-2,48.6,48.6,48.6,36.9,36.9,36.9,64,64,64,29.19,29.19,0,0,0,0.00
2013-5-3,54.5,48.8,42.1,47.1,42.3,35.7,89,78,68,29.18,28.86,0,0,1,0.53
2013-5-4,43.2,39.3,34.3,35.2,32.7,29.4,86,77,68,28.95,28.90,0,0,1,0.00
2013-5-5,63.9,53.5,45.3,48.3,44.0,37.6,80,71,51,29.23,29.07,0,0,1,0.00
2013-5-6,64.2,52.8,44.1,47.2,43.5,38.1,84,71,53,29.25,29.19,0,0,1,0.00
2013-5-7,74.3,56.1,37.8,45.2,39.1,33.3,87,57,32,29.25,29.07,0,0,1,0.00
2013-5-8,60.8,52.3,45.1,49.7,40.7,33.1,78,65,49,29.07,28.69,0,0,1,0.07
2013-5-9,56.3,49.0,44.1,41.5,37.1,30.8,84,65,39,28.75,28.53,0,0,1,0.00
2013-5-10,59.2,49.0,41.5,44.7,39.9,35.4,99,73,46,28.83,28.55,0,0,0,0.07
2013-5-11,42.4,41.9,41.5,36.2,35.7,35.1,80,78,77,28.81,28.79,0,0,1,0.00
2013-5-12,54.7,48.0,42.4,45.6,38.8,32.3,81,71,51,28.97,28.77,0,0,1,0.08
2013-5-13,50.9,42.7,36.7,38.2,34.2,31.1,86,72,54,28.80,28.63,2,0,10,0.27
2013-5-14,56.8,45.5,38.1,40.2,34.8,30.2,81,67,40,28.63,28.56,0,0,6,0.08
2013-5-15,55.9,42.4,32.7,42.7,34.8,28.9,93,75,51,28.61,28.49,0,0,1,0.12
2013-5-16,59.4,46.7,36.7,36.9,33.1,27.7,89,62,31,28.88,28.58,0,0,1,0.00
2013-5-17,65.8,51.2,37.2,42.8,35.4,30.3,95,60,28,29.05,28.89,0,0,0,0.00
2013-5-18,51.4,49.0,46.9,51.2,45.9,37.3,99,90,62,29.03,28.92,0,0,1,0.63
2013-5-19,62.1,52.6,47.1,56.2,50.0,46.9,99,92,69,29.17,29.00,0,0,0,0.01
2013-5-20,74.5,60.8,52.5,58.0,54.4,49.9,99,81,49,29.23,29.12,0,0,0,0.12
2013-5-21,69.6,55.3,43.7,53.1,44.9,38.7,99,72,34,29.27,29.21,0,0,1,0.01
2013-5-22,60.3,50.6,41.9,40.4,33.3,23.0,72,54,25,29.27,29.18,6,0,12,0.00
2013-5-23,52.0,44.0,38.8,32.7,27.8,25.7,64,53,39,29.19,29.08,5,1,17,0.00
2013-5-24,58.1,47.2,37.0,38.7,33.6,28.3,81,60,45,29.39,29.08,7,2,19,0.13
2013-5-25,70.2,54.6,33.8,37.0,32.9,28.3,82,48,24,29.39,29.30,4,0,9,0.00
2013-5-26,64.4,53.3,41.7,43.9,37.9,31.2,71,56,42,29.30,28.97,3,0,9,0.00
2013-5-27,55.9,49.9,46.0,41.4,39.3,33.7,74,67,56,28.97,28.65,5,2,14,0.00
2013-5-28,61.3,51.5,44.2,44.2,40.2,37.8,81,66,45,28.98,28.72,3,0,7,0.00
2013-5-29,61.7,54.1,45.1,49.5,45.1,41.6,99,73,48,29.10,28.98,4,0,8,0.01
2013-5-30,71.2,59.8,49.1,46.6,41.9,35.8,84,53,40,29.27,29.09,3,0,6,0.00
2013-5-31,70.0,59.2,49.5,47.8,44.3,32.4,85,61,26,29.29,29.26,5,1,12,0.00
2013-6-1,63.1,52.3,44.1,41.1,35.4,30.5,71,54,37,29.47,29.35,7,2,15,0.00
2013-6-2,71.2,56.6,42.3,39.0,36.0,31.7,75,49,24,29.62,29.47,6,1,14,0.00
2013-6-3,73.4,57.7,43.3,49.2,44.3,36.0,82,62,38,29.69,29.61,2,0,7,0.00
2013-6-4,73.2,59.6,45.5,53.8,43.0,37.1,99,58,27,29.69,29.51,4,0,8,0.00
2013-6-5,70.9,55.7,43.0,51.3,44.4,39.3,94,68,39,29.51,29.36,5,0,9,0.00
2013-6-6,77.7,58.3,45.3,48.9,42.3,24.0,85,61,14,29.45,29.37,0,0,0,0.00
2013-6-7,68.4,53.1,42.3,50.8,44.1,39.1,99,73,45,29.53,29.45,3,0,8,0.00
2013-6-8,80.4,64.4,42.1,45.5,42.5,34.2,95,49,21,29.51,29.31,3,0,11,0.00
2013-6-9,71.2,56.2,46.0,51.0,45.7,40.4,91,70,43,29.32,29.19,4,0,8,0.01
2013-6-10,70.5,54.4,45.1,48.3,44.7,40.0,93,72,40,29.22,29.10,2,0,4,0.00
2013-6-11,66.9,53.3,41.2,50.6,45.1,39.4,99,76,43,29.11,28.91,3,0,9,0.04
2013-6-12,66.2,57.7,48.0,54.0,47.1,41.8,89,69,49,28.91,28.79,4,0,8,0.07
2013-6-13,65.5,54.0,45.1,48.4,40.6,34.7,94,64,37,28.98,28.76,7,1,13,0.00
2013-6-14,68.9,56.3,45.3,45.8,42.2,40.2,85,61,39,29.00,28.79,5,1,12,0.07
2013-6-15,63.1,53.3,49.6,46.9,42.5,36.1,84,68,39,28.78,28.63,7,2,17,0.05
2013-6-16,56.7,51.0,49.5,47.6,44.4,43.7,81,78,67,28.89,28.77,5,3,16,0.00
2013-6-17,70.2,58.5,46.2,52.5,48.5,43.1,97,71,45,29.27,29.19,0,0,0,0.00
2013-6-18,78.3,63.5,54.1,49.8,46.7,42.2,80,56,30,29.24,29.12,4,0,11,0.00
2013-6-19,71.1,59.3,48.7,46.9,42.0,36.8,85,55,30,29.24,29.16,4,1,14,0.00
2013-6-20,81.7,60.7,46.6,46.4,41.2,27.8,82,56,14,29.23,29.02,4,0,8,0.00
2013-6-21,72.7,63.2,56.3,53.0,49.6,44.9,79,63,39,29.00,28.91,3,0,12,0.01
2013-6-22,65.8,56.2,50.7,50.5,46.6,43.3,87,71,46,28.82,28.51,4,1,12,0.22
2013-6-23,65.3,54.6,50.5,50.9,45.9,42.0,88,73,56,29.10,28.58,5,2,18,0.25
2013-6-24,66.0,54.5,48.7,42.3,38.5,35.5,73,56,36,29.43,29.12,4,1,14,0.01
2013-6-25,66.2,55.2,42.4,45.1,40.3,35.7,86,59,37,29.58,29.43,6,1,15,0.00
2013-6-26,72.9,59.9,48.7,48.9,41.7,36.4,94,55,27,29.61,29.57,7,1,11,0.00
2013-6-27,67.1,55.3,47.7,54.8,46.7,39.1,91,73,57,29.59,29.32,7,1,17,0.06
2013-6-28,68.4,58.7,50.5,54.3,50.3,37.4,91,75,55,29.32,29.10,10,3,21,0.09
2013-6-29,63.3,56.7,49.5,52.7,42.6,38.8,87,60,45,29.33,29.24,7,2,17,0.00
2013-6-30,66.4,57.1,51.1,51.7,46.6,41.0,79,68,53,29.30,29.05,8,3,16,0.01
2013-7-1,65.5,55.6,47.7,44.3,40.2,33.7,85,58,35,29.10,29.03,5,2,14,0.04
2013-7-2,57.6,52.5,44.8,53.3,45.5,38.0,95,77,63,29.08,28.65,5,1,11,0.13
2013-7-3,66.0,58.9,54.1,55.8,49.5,45.1,99,73,51,29.02,28.67,4,1,9,0.01
2013-7-4,66.7,58.3,53.1,59.1,48.0,41.2,88,70,47,29.34,28.94,7,2,16,0.14
2013-7-5,75.0,60.3,52.3,50.4,46.6,42.6,91,63,38,29.55,29.34,5,1,11,0.01
2013-7-6,79.7,67.1,50.5,49.9,47.1,42.8,84,51,29,29.61,29.50,5,2,14,0.00
2013-7-7,62.8,60.6,59.2,54.8,52.0,48.7,81,73,67,29.69,29.61,2,1,6,0.00
2013-7-8,86.9,69.1,52.9,57.9,53.5,48.5,99,63,31,29.81,29.68,1,0,2,0.00
2013-7-9,91.6,73.7,58.8,57.6,53.5,48.9,83,54,24,29.68,29.52,4,1,9,0.00
2013-7-10,59.4,59.2,59.0,52.5,52.0,51.8,78,77,77,29.61,29.60,2,1,7,0.00
2013-7-11,90.3,70.8,55.6,57.1,54.4,49.2,80,59,28,29.56,29.46,0,0,0,0.00
2013-7-12,88.9,73.6,57.9,59.8,54.7,48.1,97,57,26,29.47,29.41,5,1,11,0.00
2013-7-13,83.5,67.7,55.0,57.6,51.9,49.5,87,60,31,29.51,29.44,4,0,8,0.00
2013-7-14,79.2,63.9,53.6,54.4,46.3,38.8,98,58,26,29.50,29.37,4,1,15,0.00
2013-7-15,72.0,60.9,52.0,49.9,47.4,42.4,80,62,45,29.40,29.36,4,2,11,0.00
2013-7-16,81.1,67.7,60.6,56.5,51.4,46.2,80,57,35,29.45,29.38,4,1,8,0.00
2013-7-17,77.9,65.4,52.9,54.8,50.4,47.0,95,61,35,29.48,29.44,4,1,14,0.00
2013-7-18,89.1,72.7,58.6,57.2,53.9,50.0,80,55,28,29.58,29.52,4,1,12,0.00
2013-7-19,85.1,70.2,54.7,63.2,51.4,47.7,99,56,28,29.59,29.54,3,0,8,0.00
2013-7-20,83.3,69.9,48.6,56.7,50.9,45.9,99,54,30,29.56,29.47,3,0,8,0.00
2013-7-21,78.4,62.6,52.5,52.8,49.3,46.9,95,65,33,29.49,29.34,4,1,10,0.00
2013-7-22,77.2,63.3,54.9,59.0,54.3,49.5,94,74,45,29.34,29.20,2,0,10,0.00
2013-7-23,78.6,66.2,59.4,66.8,60.6,55.7,99,84,56,29.21,29.07,0,0,2,0.46
2013-7-24,79.3,68.2,55.8,63.8,55.0,48.1,99,67,35,29.11,29.08,0,0,1,0.00
2013-7-25,70.3,62.1,56.5,61.4,57.4,52.3,96,85,67,29.11,29.02,1,0,3,0.26
2013-7-26,81.9,64.5,53.4,65.0,53.4,47.3,99,72,32,29.06,29.03,6,1,12,0.02
2013-7-27,79.2,63.6,50.9,58.7,53.8,48.4,99,73,37,29.06,28.88,4,0,8,0.14
2013-7-28,71.2,59.4,55.2,59.6,55.9,52.5,99,89,52,28.88,28.73,3,0,8,0.79
2013-7-29,76.5,60.1,54.9,67.5,55.3,51.9,99,86,46,28.95,28.84,2,0,9,0.21
2013-7-30,74.5,60.2,52.7,56.6,50.3,40.7,99,74,30,29.00,28.95,4,1,9,0.08
2013-7-31,74.3,62.2,51.6,58.0,48.8,41.5,99,66,31,29.08,28.97,4,0,9,0.13
2013-8-1,73.4,64.3,57.2,65.6,59.0,55.4,99,84,60,28.97,28.84,4,0,10,0.19
2013-8-2,76.8,67.2,59.2,62.1,52.1,43.4,99,63,33,28.85,28.77,9,2,17,0.02
2013-8-3,70.3,60.5,53.8,50.1,46.4,39.9,85,61,33,29.06,28.79,7,2,16,0.01
2013-8-4,74.7,61.6,50.2,53.8,47.4,42.9,86,62,36,29.10,29.06,4,1,9,0.05
2013-8-5,70.9,58.0,51.1,56.0,49.9,43.9,96,76,48,29.08,28.96,4,0,9,0.00
2013-8-6,71.1,58.2,45.9,45.5,42.8,39.1,83,59,34,29.18,29.06,4,1,8,0.00
2013-8-7,76.6,58.0,45.3,54.9,46.3,42.4,99,70,30,29.26,29.16,0,0,2,0.13
2013-8-8,74.1,61.0,47.5,62.1,48.8,42.2,99,68,37,29.26,29.13,2,0,5,0.01
2013-8-9,70.7,60.6,52.3,53.4,47.3,40.7,86,63,38,29.30,29.08,7,2,14,0.00
2013-8-10,66.0,58.6,51.8,46.5,42.8,40.8,69,57,44,29.31,29.28,3,1,9,0.00
2013-8-11,65.3,56.5,50.7,51.6,45.9,41.0,96,69,42,29.18,29.06,5,2,14,0.19
2013-8-12,69.1,57.7,50.0,48.8,43.8,40.2,89,62,37,29.21,29.04,8,3,16,0.00
2013-8-13,69.6,57.9,48.7,45.9,41.6,35.9,77,56,29,29.34,29.21,5,1,11,0.00
2013-8-14,74.3,61.9,52.3,57.4,48.4,42.0,91,63,39,29.33,29.14,4,1,8,0.04
2013-8-15,70.0,62.8,58.8,63.0,59.3,56.5,99,89,67,29.14,28.96,4,1,11,0.30
2013-8-16,72.3,62.5,50.5,61.1,49.6,45.6,99,65,41,29.08,28.95,4,2,15,0.04
2013-8-17,72.1,60.1,50.0,57.8,51.0,44.5,92,72,54,29.06,28.62,7,2,14,0.14
2013-8-18,65.8,56.1,48.7,48.4,44.2,41.7,87,65,42,29.00,28.67,6,2,17,0.06
2013-8-19,68.0,57.6,48.2,48.9,45.1,41.4,93,65,39,29.37,29.01,5,1,13,0.00
2013-8-20,71.8,60.2,50.9,56.0,49.4,45.5,97,69,42,29.44,29.35,4,1,11,0.00
2013-8-21,75.0,62.8,56.8,61.1,55.0,50.2,99,77,45,29.35,29.24,3,1,12,0.01
2013-8-22,70.5,59.6,52.9,64.3,56.0,52.0,99,89,59,29.33,29.22,1,0,3,0.00
2013-8-23,72.3,62.0,52.0,63.6,54.7,51.7,99,79,54,29.22,29.09,2,0,6,0.00
2013-8-24,67.6,59.4,55.9,55.4,49.8,46.3,92,72,51,29.18,29.10,4,0,7,0.00
2013-8-25,77.2,61.8,52.2,53.8,50.3,42.7,93,68,42,29.38,29.17,2,0,4,0.00
2013-8-26,82.6,67.6,52.9,66.7,53.7,47.4,99,67,34,29.39,29.31,3,0,6,0.00
2013-8-27,75.2,61.0,51.8,52.4,50.2,47.5,90,69,44,29.41,29.28,4,1,8,0.00
2013-8-28,77.4,61.6,53.8,57.6,50.9,43.8,99,72,33,29.42,29.32,4,1,9,0.00
2013-8-29,65.3,58.7,49.8,55.3,49.8,40.1,90,73,59,29.28,29.21,4,1,9,0.00
2013-8-30,70.0,59.6,49.5,56.7,49.3,36.6,78,69,55,29.27,29.05,7,2,20,0.00
2013-8-31,66.0,54.8,45.5,43.4,37.9,29.1,72,55,26,29.47,29.27,6,2,16,0.00
2013-9-1,59.7,55.6,52.3,51.8,45.3,40.6,81,69,54,29.45,29.30,10,5,21,0.00
2013-9-2,68.5,61.9,57.2,55.8,53.9,51.7,91,75,59,29.46,29.29,8,4,20,0.00
2013-9-3,77.9,63.3,51.4,59.8,52.1,43.4,99,71,31,29.47,29.40,4,1,11,0.00
2013-9-4,76.6,60.6,51.1,55.4,45.8,37.3,99,63,28,29.40,29.13,6,1,11,0.00
2013-9-5,70.0,56.2,50.5,50.0,38.5,31.5,83,54,26,29.13,29.07,4,0,8,0.00
2013-9-6,57.9,50.1,45.9,47.1,42.9,35.0,97,77,53,29.11,29.06,6,1,13,0.00
2013-9-7,64.8,52.4,41.9,56.2,44.0,36.5,99,76,40,29.13,28.94,4,1,10,0.00
2013-9-8,71.6,52.2,38.8,50.8,40.2,36.0,99,67,30,29.18,29.12,2,0,7,0.00
2013-9-9,71.6,53.3,43.0,53.0,43.9,37.9,99,74,31,29.35,29.15,4,0,7,0.00
2013-9-10,69.1,57.2,48.6,43.4,40.3,37.9,78,55,34,29.43,29.35,6,1,14,0.00
2013-9-11,67.1,55.8,48.6,53.5,48.5,41.6,88,77,54,29.42,29.28,4,0,11,0.00
2013-9-12,72.9,59.8,52.3,60.0,54.2,45.8,99,84,38,29.29,29.09,6,1,13,0.00
2013-9-13,54.0,50.7,45.9,49.3,44.6,41.1,96,80,66,29.29,29.16,2,0,8,0.45
2013-9-14,45.7,45.7,45.7,42.0,42.0,42.0,87,87,87,29.23,29.23,0,0,0,0.00
2013-9-15,58.5,48.9,41.7,56.5,39.4,33.1,96,71,45,29.13,28.41,9,4,28,0.89
2013-9-16,57.7,48.4,41.2,40.4,36.7,33.0,79,64,49,28.54,28.47,9,4,23,0.01
2013-9-17,61.5,50.6,45.9,39.8,37.2,35.6,71,61,42,28.59,28.49,8,3,21,0.00
2013-9-18,61.0,50.1,43.9,40.7,37.4,35.1,82,63,41,28.93,28.59,7,2,14,0.00
2013-9-19,57.9,49.1,43.2,51.7,45.5,38.0,99,88,72,28.96,28.71,3,0,11,0.59
2013-9-20,64.9,53.6,44.2,51.2,42.5,38.0,99,68,40,29.24,28.96,5,2,13,0.01
2013-9-21,62.8,56.6,47.5,55.4,48.8,42.8,91,75,66,29.32,29.23,4,1,10,0.00
2013-9-22,70.0,62.2,57.4,54.2,51.1,47.3,80,68,45,29.50,29.31,5,2,14,0.00
2013-9-23,72.3,59.3,47.8,59.6,52.3,47.6,99,80,51,29.49,29.33,2,0,4,0.00
2013-9-24,59.5,57.4,55.4,58.5,55.6,54.0,99,94,87,29.32,29.16,1,0,4,0.01
2013-9-25,55.6,51.3,41.4,55.3,51.0,41.1,99,99,99,29.25,29.10,3,0,8,0.35
2013-9-26,64.0,49.5,37.4,57.1,41.7,37.1,99,78,42,29.31,29.24,2,0,6,0.01
2013-9-27,61.5,55.2,51.4,56.6,50.0,45.7,99,83,66,29.26,29.14,0,0,0,0.00
2013-9-28,54.9,49.2,44.4,54.6,48.8,44.2,99,99,97,29.14,29.09,0,0,0,0.00
2013-9-29,70.3,55.0,43.3,51.3,42.5,37.3,99,69,32,29.14,29.10,3,1,8,0.00
2013-9-30,61.9,52.8,48.2,46.4,42.2,39.5,85,68,46,29.11,29.03,4,1,11,0.00
2013-10-1,65.3,53.2,46.6,43.2,40.5,37.7,79,63,38,29.11,29.05,4,1,10,0.00
2013-10-2,58.5,55.8,52.7,52.9,46.9,41.0,86,72,62,29.06,28.98,3,1,9,0.00
2013-10-3,73.2,60.7,55.9,58.8,55.0,50.7,99,83,52,28.99,28.75,3,0,11,0.00
2013-10-4,64.9,58.8,53.2,64.7,55.0,46.6,99,88,66,29.02,28.75,6,1,14,0.00
2013-10-5,61.7,54.9,51.3,49.5,46.3,43.2,87,73,55,29.29,29.02,3,1,11,0.00
2013-10-6,63.7,58.2,52.9,55.2,51.7,47.2,90,79,66,29.30,29.24,4,1,11,0.00
2013-10-7,67.6,60.1,55.0,60.2,53.9,49.9,99,81,59,29.28,29.20,5,2,15,0.00
2013-10-8,60.6,54.7,50.5,58.6,47.5,40.0,99,77,64,29.35,29.19,8,3,17,0.00
2013-10-9,54.5,48.9,43.0,42.7,34.1,25.3,79,58,36,29.32,28.74,8,3,20,0.00
2013-10-10,54.3,45.7,41.4,32.1,28.0,24.8,63,50,35,29.58,28.96,5,1,11,0.00
2013-10-11,51.6,47.7,44.6,38.5,35.1,30.0,66,61,56,29.67,29.59,4,2,10,0.00
2013-10-12,55.2,50.6,47.3,46.4,42.6,36.0,90,74,54,29.64,29.45,4,2,11,0.00
2013-10-13,53.8,49.1,46.0,50.4,46.8,42.0,99,92,66,29.45,29.22,6,2,13,0.00
2013-10-14,63.1,52.7,45.9,50.9,42.4,33.8,99,71,35,29.23,29.12,4,1,12,0.00
2013-10-15,50.7,47.7,39.4,50.4,47.1,39.1,99,98,87,29.19,29.08,2,0,6,0.00
2013-10-16,52.3,47.0,36.5,50.0,45.2,36.2,99,94,75,29.17,28.76,2,0,9,0.00
2013-10-17,55.0,49.0,42.1,54.8,48.7,41.8,99,99,99,29.16,28.82,1,0,5,0.00
2013-10-18,54.0,50.3,46.2,53.7,49.3,46.0,99,97,86,29.20,28.90,3,0,9,0.00
2013-10-19,60.1,54.0,51.3,57.2,52.2,49.9,99,94,86,28.90,28.67,3,0,9,0.00
2013-10-20,64.4,53.6,46.0,62.2,49.2,43.9,99,86,52,28.69,28.25,3,0,10,0.01
2013-10-21,58.1,53.1,46.9,57.8,50.6,46.4,99,92,70,28.74,28.49,3,0,8,0.00
2013-10-22,65.3,57.1,54.7,58.4,52.3,48.1,99,84,58,28.49,28.34,6,1,13,0.00
2013-10-23,57.6,51.2,43.7,53.6,44.1,33.1,98,78,51,28.77,28.22,8,2,21,0.00
2013-10-24,61.3,46.4,39.6,42.9,38.6,32.3,87,75,36,29.10,28.77,4,1,11,0.00
2013-10-25,63.1,51.9,42.8,53.6,48.1,39.3,99,88,58,29.05,28.53,6,1,12,0.00
2013-10-26,58.3,50.8,42.8,52.7,43.8,37.6,96,77,50,28.65,28.37,6,1,15,0.00
2013-10-27,54.9,48.5,42.6,46.1,42.6,39.2,96,81,59,28.38,28.07,6,2,13,0.00
2013-10-28,53.1,46.8,44.8,44.5,40.0,37.5,91,77,59,28.53,28.11,5,2,17,0.00
2013-10-29,55.2,46.5,42.4,37.4,34.3,31.3,73,63,48,29.05,28.53,7,3,17,0.00
2013-10-30,52.7,46.6,38.1,47.0,40.2,31.0,99,79,60,29.10,28.80,7,2,20,0.00
2013-10-31,55.8,45.8,41.7,40.6,38.2,33.8,92,76,50,29.01,28.80,6,2,18,0.00
2013-11-1,52.9,44.3,38.7,38.2,35.1,31.4,89,71,50,28.81,28.75,6,2,15,0.00
2013-11-2,46.0,40.1,33.1,43.8,37.8,32.8,99,91,80,28.75,28.06,8,2,24,0.00
2013-11-3,50.7,43.4,38.1,37.5,31.1,28.0,86,62,45,28.48,28.14,9,4,30,0.00
2013-11-4,54.9,39.2,31.5,31.4,28.4,24.6,81,66,39,28.56,28.39,5,1,13,0.00
2013-11-5,50.4,37.9,28.6,46.0,31.8,25.5,99,79,64,28.53,28.37,5,1,11,0.00
2013-11-6,45.5,40.8,36.9,38.0,34.8,30.8,91,79,70,28.57,28.43,5,1,15,0.00
2013-11-7,48.6,42.4,35.8,37.2,33.7,29.6,93,72,52,28.67,28.57,7,2,14,0.00
2013-11-8,51.4,42.0,35.4,38.1,34.5,31.6,98,75,55,28.74,28.65,4,1,11,0.00
2013-11-9,43.0,37.5,32.4,41.1,32.6,25.0,99,83,65,28.81,28.68,4,1,14,0.00
2013-11-10,56.7,38.6,32.5,32.0,28.3,24.2,83,67,33,29.28,28.81,6,1,16,0.00
2013-11-11,56.7,47.5,41.5,52.4,39.5,29.5,95,74,54,29.22,28.98,4,2,10,0.00
2013-11-12,50.4,44.9,41.9,41.6,34.3,30.7,83,67,48,29.53,29.22,7,2,14,0.00
2013-11-13,48.4,44.6,40.1,40.9,35.8,30.7,91,72,52,29.55,29.00,7,2,16,0.00
2013-11-14,49.5,43.6,39.6,37.9,27.9,21.5,74,54,35,29.63,28.98,8,3,16,0.00
2013-11-15,48.7,46.7,37.6,48.0,41.5,25.7,98,82,55,29.63,29.51,4,2,14,0.00
2013-11-16,52.7,49.7,44.4,45.3,41.1,33.8,79,72,63,29.52,29.38,8,3,18,0.00
2013-11-17,47.3,41.1,31.3,46.4,35.8,27.3,99,82,59,29.53,29.09,5,0,11,0.00
2013-11-18,43.9,39.3,33.3,42.3,34.8,26.4,94,84,70,29.09,28.93,4,1,8,0.00
2013-11-19,44.1,35.1,31.6,29.3,22.0,18.3,75,59,37,29.17,28.93,9,2,19,0.00
2013-11-20,42.8,39.9,36.3,38.7,29.9,24.3,90,68,56,28.92,28.57,6,3,18,0.00
2013-11-21,40.6,35.7,29.5,24.9,23.2,19.5,68,60,50,29.31,28.95,4,0,8,0.00
2013-11-22,48.7,31.1,23.2,28.7,21.4,17.3,84,68,40,29.43,29.31,2,0,4,0.00
2013-11-23,48.9,36.6,31.1,33.0,28.6,23.5,85,73,54,29.59,29.43,1,0,3,0.00
2013-11-24,44.1,34.9,28.9,43.4,30.3,23.3,99,84,64,29.83,29.59,0,0,0,0.00
2013-11-25,43.9,36.1,27.3,37.8,28.4,22.6,93,74,54,29.87,29.82,4,0,8,0.00
2013-11-26,50.9,46.6,41.5,45.4,40.3,33.9,88,79,70,29.84,29.67,6,2,13,0.00
2013-11-27,52.3,50.0,47.8,44.0,42.1,39.7,83,74,66,29.70,29.63,7,2,14,0.00
2013-11-28,47.5,42.8,37.2,44.5,36.8,31.3,95,79,71,29.77,29.51,4,0,7,0.00
2013-11-29,46.8,43.0,40.6,44.4,31.3,24.4,94,64,49,29.49,29.26,9,4,17,0.00
2013-11-30,46.2,41.5,33.6,37.2,29.0,23.1,76,61,49,29.55,29.44,5,1,14,0.00
2013-12-1,54.0,42.8,35.6,44.6,36.8,29.9,99,80,57,29.74,29.59,8,0,14,0.00
2013-12-2,45.5,42.3,35.6,45.2,37.7,33.9,99,85,70,29.73,29.50,4,1,14,0.00
2013-12-3,47.5,43.3,40.1,43.5,37.7,33.8,86,81,72,29.49,29.30,4,1,10,0.00
2013-12-4,43.2,40.2,34.7,34.6,30.0,27.5,80,67,59,29.44,29.23,7,3,19,0.00
2013-12-5,45.5,38.5,31.6,41.3,29.3,18.7,87,70,50,29.25,28.62,12,4,22,0.00
2013-12-6,36.1,33.5,32.4,26.0,19.5,15.8,76,57,48,29.46,29.27,5,1,14,0.00
2013-12-7,47.1,43.1,32.9,45.5,39.4,26.2,99,87,75,29.36,29.11,5,2,13,0.00
2013-12-8,52.5,50.6,46.9,49.7,47.1,40.5,93,88,76,29.14,29.03,8,3,19,0.00
2013-12-9,52.2,50.4,48.0,49.3,43.6,36.0,93,78,62,29.36,29.13,6,2,15,0.00
2013-12-10,48.2,48.0,48.0,35.6,35.4,35.0,62,61,60,29.34,29.33,4,3,17,0.00
2013-12-11,51.1,48.1,43.7,43.8,36.8,26.3,78,66,46,29.42,29.18,5,2,15,0.00
2013-12-12,53.4,50.7,46.0,49.1,43.7,25.2,88,78,38,29.18,29.08,5,2,15,0.00
2013-12-13,54.5,50.4,41.0,48.4,42.5,30.5,83,74,61,29.11,28.88,6,2,17,0.00
2013-12-14,50.5,47.4,40.1,47.8,39.4,30.7,91,74,62,29.08,28.63,8,4,20,0.00
2013-12-15,48.7,44.2,39.2,46.2,38.0,27.7,95,79,58,29.02,28.70,6,2,19,0.00
2013-12-16,47.3,40.6,38.7,41.4,31.8,28.6,80,70,65,29.11,28.70,5,2,17,0.00
2013-12-17,44.8,39.1,34.0,32.4,29.3,27.2,79,68,56,29.25,28.92,5,2,13,0.00
2013-12-18,50.9,44.7,40.3,43.4,33.5,27.5,78,65,56,28.92,27.96,10,5,23,0.00
2013-12-19,42.8,37.1,34.5,31.2,26.3,23.5,87,65,56,28.64,28.03,6,2,17,0.00
2013-12-20,50.2,44.9,36.0,46.7,37.5,25.7,93,76,62,28.90,28.54,8,4,21,0.07
2013-12-21,49.5,43.1,36.9,40.1,33.9,31.1,96,71,60,28.67,28.46,7,3,17,0.39
2013-12-22,39.9,37.2,34.5,30.9,28.7,26.2,84,71,63,28.69,28.47,8,3,18,0.15
2013-12-23,48.9,41.7,33.6,47.4,34.7,25.5,99,76,66,28.68,27.56,8,2,21,0.56
2013-12-24,47.8,39.4,37.0,39.6,27.0,20.6,74,61,44,27.64,27.46,10,5,24,0.12
2013-12-25,45.1,39.9,37.2,31.1,27.1,25.4,72,60,48,28.25,27.67,7,3,17,0.02
2013-12-26,40.6,36.7,32.4,33.9,29.1,25.0,87,74,61,28.46,27.84,6,1,17,0.01
2013-12-27,45.1,41.9,37.8,38.0,35.6,29.5,84,78,65,27.93,27.39,11,5,25,1.00
2013-12-28,42.3,40.1,37.9,35.4,32.4,30.2,82,74,65,28.65,27.93,9,4,22,0.12
2013-12-29,46.8,40.9,37.2,36.0,32.3,27.2,79,71,60,28.96,28.65,6,2,17,0.01
2013-12-30,48.9,42.2,37.0,42.6,36.5,31.0,93,80,66,28.77,28.44,8,3,22,0.85
2013-12-31,45.1,41.9,36.9,36.8,32.7,28.9,82,69,63,28.76,28.41,7,2,17,0.04
2014-1-1,45.1,40.7,37.8,39.0,32.0,29.5,79,71,67,28.47,27.89,5,1,14,0.09
2014-1-2,43.2,42.1,40.6,37.1,35.5,34.6,79,77,75,28.21,27.90,7,3,18,0.01